Time;durP1;ratioP1;P1;durP2;ratioP2;P2;SDS_P1;SDS_P2;PMS_P1;PMS_P2;Temp;Humidity;BMP_temperature;BMP_pressure;BME280_temperature;BME280_humidity;BME280_pressure;Samples;Min_cycle;Max_cycle;Signal;HPM_P1;HPM_P2
2023/08/25 00:01:10;;;;;;;7.43;3.60;;;;;;;;;;5054720;28;20036;-77
2023/08/25 00:03:36;;;;;;;6.93;3.88;;;;;;;;;;5045230;28;20337;-77
2023/08/25 00:06:01;;;;;;;6.63;3.50;;;;;;;;;;5058358;28;20045;-76
2023/08/25 00:08:27;;;;;;;9.55;3.88;;;;;;;;;;5034722;28;20259;-76
2023/08/25 00:10:52;;;;;;;6.15;3.33;;;;;;;;;;5050031;28;20044;-77
2023/08/25 00:13:19;;;;;;;5.82;2.90;;;;;;;;;;5041242;28;20033;-76
2023/08/25 00:15:45;;;;;;;8.43;3.20;;;;;;;;;;5031902;28;20036;-77
2023/08/25 00:18:10;;;;;;;6.32;3.40;;;;;;;;;;5054140;28;20034;-76
2023/08/25 00:20:36;;;;;;;4.85;3.35;;;;;;;;;;5049502;28;20040;-77
2023/08/25 00:23:02;;;;;;;6.88;2.92;;;;;;;;;;5056516;28;20029;-76
2023/08/25 00:25:27;;;;;;;4.82;2.97;;;;;;;;;;5051855;28;20089;-76
2023/08/25 00:27:52;;;;;;;5.87;3.50;;;;;;;;;;5050448;28;20053;-76
2023/08/25 00:30:18;;;;;;;4.30;3.40;;;;;;;;;;5041409;28;20280;-76
2023/08/25 00:32:43;;;;;;;5.05;3.45;;;;;;;;;;5039729;28;20828;-77
2023/08/25 00:35:09;;;;;;;5.78;3.63;;;;;;;;;;5053340;28;20032;-76
2023/08/25 00:37:35;;;;;;;5.18;3.50;;;;;;;;;;5051492;28;20033;-77
2023/08/25 00:40:00;;;;;;;6.15;3.83;;;;;;;;;;5040826;28;20044;-76
2023/08/25 00:42:25;;;;;;;7.13;4.05;;;;;;;;;;5046667;28;20029;-77
2023/08/25 00:44:50;;;;;;;6.15;3.65;;;;;;;;;;5048688;28;20044;-76
2023/08/25 00:47:16;;;;;;;6.22;3.90;;;;;;;;;;5044796;28;20029;-76
2023/08/25 00:49:41;;;;;;;7.22;4.22;;;;;;;;;;5028253;28;20439;-76
2023/08/25 00:52:07;;;;;;;7.30;4.55;;;;;;;;;;5044499;28;20053;-76
2023/08/25 00:54:34;;;;;;;6.50;4.18;;;;;;;;;;5031181;28;20113;-76
2023/08/25 00:57:00;;;;;;;6.32;4.30;;;;;;;;;;5034536;28;20542;-76
2023/08/25 00:59:25;;;;;;;7.35;3.90;;;;;;;;;;5047628;28;20033;-76
2023/08/25 01:01:51;;;;;;;7.60;4.32;;;;;;;;;;5051789;28;20040;-76
2023/08/25 01:04:16;;;;;;;5.63;3.90;;;;;;;;;;5049041;28;20026;-76
2023/08/25 01:06:41;;;;;;;6.37;3.77;;;;;;;;;;5057714;28;20040;-76
2023/08/25 01:09:07;;;;;;;7.88;4.38;;;;;;;;;;5043306;28;20624;-76
2023/08/25 01:11:51;;;;;;;6.38;4.65;;;;;;;;;;5018234;28;20028;-77
2023/08/25 01:14:36;;;;;;;6.22;4.53;;;;;;;;;;5038057;28;20423;-76
2023/08/25 01:17:06;;;;;;;7.38;4.75;;;;;;;;;;5038676;28;20029;-77
2023/08/25 01:19:40;;;;;;;9.43;5.20;;;;;;;;;;5033257;28;20029;-77
2023/08/25 01:22:13;;;;;;;8.05;4.22;;;;;;;;;;5037567;28;20408;-77
2023/08/25 01:24:39;;;;;;;8.73;4.82;;;;;;;;;;5035585;28;20029;-77
2023/08/25 01:27:04;;;;;;;7.07;4.40;;;;;;;;;;5032987;28;20495;-77
2023/08/25 01:29:29;;;;;;;7.53;4.60;;;;;;;;;;5052570;28;20025;-77
2023/08/25 01:31:56;;;;;;;6.32;4.55;;;;;;;;;;5043005;28;20099;-77
2023/08/25 01:34:24;;;;;;;7.18;4.93;;;;;;;;;;5035374;28;20033;-77
2023/08/25 01:36:53;;;;;;;6.43;4.25;;;;;;;;;;5037487;28;20255;-77
2023/08/25 01:39:20;;;;;;;9.88;4.50;;;;;;;;;;5033847;28;20045;-77
2023/08/25 01:41:54;;;;;;;6.97;4.18;;;;;;;;;;5033147;28;20075;-77
2023/08/25 01:44:20;;;;;;;5.05;4.07;;;;;;;;;;5039290;28;20033;-77
2023/08/25 01:46:48;;;;;;;5.15;3.78;;;;;;;;;;5036841;28;20506;-77
2023/08/25 01:49:15;;;;;;;6.30;4.40;;;;;;;;;;5035200;28;20048;-77
2023/08/25 01:51:41;;;;;;;7.30;4.28;;;;;;;;;;5051705;28;20033;-76
2023/08/25 01:54:07;;;;;;;6.80;4.85;;;;;;;;;;5056435;28;20022;-77
2023/08/25 01:56:34;;;;;;;8.10;4.78;;;;;;;;;;5034833;28;20396;-77
2023/08/25 01:58:59;;;;;;;7.18;5.20;;;;;;;;;;5041332;28;20033;-77
2023/08/25 02:01:26;;;;;;;6.70;5.10;;;;;;;;;;5041844;28;20029;-77
2023/08/25 02:03:52;;;;;;;6.53;4.75;;;;;;;;;;5035029;28;20025;-77
2023/08/25 02:06:18;;;;;;;6.18;4.90;;;;;;;;;;5035350;28;20021;-77
2023/08/25 02:08:44;;;;;;;6.63;4.43;;;;;;;;;;5035418;28;20487;-77
2023/08/25 02:11:09;;;;;;;10.75;5.00;;;;;;;;;;5041039;28;20040;-77
2023/08/25 02:13:34;;;;;;;8.18;4.47;;;;;;;;;;5043926;28;20037;-77
2023/08/25 02:15:59;;;;;;;8.00;4.63;;;;;;;;;;5041133;28;20034;-76
2023/08/25 02:18:25;;;;;;;6.28;4.53;;;;;;;;;;5044206;28;20028;-77
2023/08/25 02:20:50;;;;;;;5.95;5.00;;;;;;;;;;5040860;28;20033;-76
2023/08/25 02:23:15;;;;;;;7.55;4.72;;;;;;;;;;5052415;28;20029;-77
2023/08/25 02:25:41;;;;;;;27.30;4.80;;;;;;;;;;5041917;28;20037;-77
2023/08/25 02:28:06;;;;;;;8.10;4.88;;;;;;;;;;5055219;28;20275;-77
2023/08/25 02:30:31;;;;;;;7.25;4.30;;;;;;;;;;5053086;28;20034;-77
2023/08/25 02:32:57;;;;;;;7.53;4.82;;;;;;;;;;5056110;28;20095;-77
2023/08/25 02:35:23;;;;;;;5.82;4.32;;;;;;;;;;5038384;28;20029;-77
2023/08/25 02:37:59;;;;;;;8.63;4.88;;;;;;;;;;5052982;28;20079;-77
2023/08/25 02:40:24;;;;;;;6.70;4.53;;;;;;;;;;5041734;28;20036;-77
2023/08/25 02:42:50;;;;;;;6.32;4.32;;;;;;;;;;5034861;28;20041;-77
2023/08/25 02:45:17;;;;;;;5.85;4.20;;;;;;;;;;5038285;28;20030;-77
2023/08/25 02:47:42;;;;;;;6.85;4.20;;;;;;;;;;5040841;28;20048;-76
2023/08/25 02:50:08;;;;;;;7.53;3.77;;;;;;;;;;5054742;28;20048;-76
2023/08/25 02:52:33;;;;;;;7.50;4.97;;;;;;;;;;5015671;28;20843;-77
2023/08/25 02:54:58;;;;;;;8.27;5.53;;;;;;;;;;5039627;28;20474;-77
2023/08/25 02:57:23;;;;;;;4.90;3.90;;;;;;;;;;5055534;28;20108;-77
2023/08/25 02:59:48;;;;;;;9.70;4.35;;;;;;;;;;5051028;28;20330;-77
2023/08/25 03:02:14;;;;;;;8.27;4.68;;;;;;;;;;5056382;28;20131;-77
2023/08/25 03:04:40;;;;;;;7.90;3.35;;;;;;;;;;5028889;28;20028;-77
2023/08/25 03:07:05;;;;;;;6.93;4.90;;;;;;;;;;5044819;28;20116;-77
2023/08/25 03:09:30;;;;;;;5.43;4.10;;;;;;;;;;5042126;28;20025;-76
2023/08/25 03:11:56;;;;;;;9.55;6.95;;;;;;;;;;5050372;28;20037;-77
2023/08/25 03:14:21;;;;;;;5.73;4.23;;;;;;;;;;5053624;28;20377;-77
2023/08/25 03:16:46;;;;;;;6.82;4.07;;;;;;;;;;5040819;28;20283;-75
2023/08/25 03:19:12;;;;;;;8.50;3.70;;;;;;;;;;5046659;28;20032;-77
2023/08/25 03:21:38;;;;;;;5.80;4.50;;;;;;;;;;5048126;28;20033;-77
2023/08/25 03:24:04;;;;;;;9.23;3.70;;;;;;;;;;5044493;28;20036;-77
2023/08/25 03:26:29;;;;;;;6.97;4.03;;;;;;;;;;5025967;28;20049;-77
2023/08/25 03:28:54;;;;;;;6.95;4.45;;;;;;;;;;5043431;28;20088;-77
2023/08/25 03:31:20;;;;;;;6.03;3.70;;;;;;;;;;5052337;28;20029;-77
2023/08/25 03:33:45;;;;;;;5.28;3.50;;;;;;;;;;5043953;28;20032;-77
2023/08/25 03:36:10;;;;;;;9.30;4.33;;;;;;;;;;5043701;28;20125;-77
2023/08/25 03:38:36;;;;;;;7.15;4.03;;;;;;;;;;5040426;28;20789;-77
2023/08/25 03:41:01;;;;;;;6.03;3.80;;;;;;;;;;5051506;28;20033;-77
2023/08/25 03:43:26;;;;;;;7.35;3.75;;;;;;;;;;5024604;28;20026;-77
2023/08/25 03:45:52;;;;;;;6.35;3.55;;;;;;;;;;5041505;28;20017;-76
2023/08/25 03:48:17;;;;;;;7.60;4.20;;;;;;;;;;5038736;28;20037;-77
2023/08/25 03:50:46;;;;;;;7.50;3.53;;;;;;;;;;5054722;28;20025;-77
2023/08/25 03:53:11;;;;;;;5.18;3.03;;;;;;;;;;5042657;28;20501;-77
2023/08/25 03:55:37;;;;;;;5.75;3.20;;;;;;;;;;5049333;28;20068;-77
2023/08/25 03:58:02;;;;;;;6.28;3.83;;;;;;;;;;5051918;28;20506;-77
2023/08/25 04:00:27;;;;;;;6.60;3.83;;;;;;;;;;5052718;28;20486;-76
2023/08/25 04:02:53;;;;;;;8.57;3.40;;;;;;;;;;5040387;28;20041;-77
2023/08/25 04:05:18;;;;;;;5.57;3.75;;;;;;;;;;5043261;28;20475;-77
2023/08/25 04:07:44;;;;;;;8.35;3.67;;;;;;;;;;5046535;28;20049;-77
2023/08/25 04:10:09;;;;;;;5.82;3.70;;;;;;;;;;5038017;28;20040;-77
2023/08/25 04:12:35;;;;;;;6.05;3.50;;;;;;;;;;5042222;28;20740;-77
2023/08/25 04:15:00;;;;;;;5.90;3.60;;;;;;;;;;5039633;28;20029;-77
2023/08/25 04:17:26;;;;;;;6.40;4.15;;;;;;;;;;5041612;28;20029;-77
2023/08/25 04:19:52;;;;;;;5.35;3.53;;;;;;;;;;5039907;28;20034;-77
2023/08/25 04:22:17;;;;;;;7.90;3.67;;;;;;;;;;5042087;28;20082;-77
2023/08/25 04:24:42;;;;;;;7.25;4.65;;;;;;;;;;5044416;28;20052;-77
2023/08/25 04:27:09;;;;;;;10.85;4.82;;;;;;;;;;5047378;28;20029;-77
2023/08/25 04:29:35;;;;;;;6.25;3.78;;;;;;;;;;5043252;28;20040;-77
2023/08/25 04:32:02;;;;;;;5.82;3.33;;;;;;;;;;5040787;28;20021;-76
2023/08/25 04:34:38;;;;;;;8.27;3.83;;;;;;;;;;5049758;28;20399;-78
2023/08/25 04:37:03;;;;;;;7.10;3.85;;;;;;;;;;5034150;28;20033;-77
2023/08/25 04:39:28;;;;;;;6.50;3.53;;;;;;;;;;5043439;28;20037;-76
2023/08/25 04:41:54;;;;;;;7.28;3.92;;;;;;;;;;5044109;28;20025;-77
2023/08/25 04:44:20;;;;;;;10.45;3.92;;;;;;;;;;5042587;28;20052;-77
2023/08/25 04:46:46;;;;;;;5.53;3.40;;;;;;;;;;5045579;28;20659;-77
2023/08/25 04:49:11;;;;;;;7.28;3.38;;;;;;;;;;5050323;28;20033;-77
2023/08/25 04:51:36;;;;;;;6.32;3.50;;;;;;;;;;5027825;28;20116;-77
2023/08/25 04:54:04;;;;;;;8.93;5.10;;;;;;;;;;5042777;28;20021;-77
2023/08/25 04:56:31;;;;;;;6.63;4.25;;;;;;;;;;5043579;28;20049;-77
2023/08/25 04:58:58;;;;;;;6.55;4.95;;;;;;;;;;5043881;28;20028;-77
2023/08/25 05:01:23;;;;;;;5.75;4.10;;;;;;;;;;5047427;28;20104;-77
2023/08/25 05:03:48;;;;;;;6.55;3.95;;;;;;;;;;5044515;28;20075;-77
2023/08/25 05:06:14;;;;;;;6.80;4.90;;;;;;;;;;5043517;28;20036;-77
2023/08/25 05:08:40;;;;;;;8.00;5.18;;;;;;;;;;5046304;28;20543;-78
2023/08/25 05:11:06;;;;;;;8.20;4.60;;;;;;;;;;5040891;28;20025;-77
2023/08/25 05:13:31;;;;;;;7.18;3.95;;;;;;;;;;5038550;28;20037;-77
2023/08/25 05:15:57;;;;;;;8.18;4.25;;;;;;;;;;5048382;28;20071;-77
2023/08/25 05:18:38;;;;;;;8.02;3.50;;;;;;;;;;5044775;28;20037;-78
2023/08/25 05:21:05;;;;;;;9.00;4.20;;;;;;;;;;5060681;28;20029;-78
2023/08/25 05:23:31;;;;;;;5.05;2.97;;;;;;;;;;5044682;28;20018;-77
2023/08/25 05:25:57;;;;;;;6.10;3.65;;;;;;;;;;5049561;28;20032;-77
2023/08/25 05:28:23;;;;;;;8.88;4.55;;;;;;;;;;5050553;28;20021;-77
2023/08/25 05:30:49;;;;;;;7.03;4.70;;;;;;;;;;5032707;28;20033;-78
2023/08/25 05:33:16;;;;;;;8.88;4.40;;;;;;;;;;5032255;28;20043;-77
2023/08/25 05:36:00;;;;;;;8.50;4.95;;;;;;;;;;5060578;28;20101;-78
2023/08/25 05:38:26;;;;;;;6.97;4.85;;;;;;;;;;5048764;28;20029;-77
2023/08/25 05:40:51;;;;;;;8.45;6.05;;;;;;;;;;5056691;28;20057;-77
2023/08/25 05:43:16;;;;;;;7.75;4.90;;;;;;;;;;5050163;28;20032;-77
2023/08/25 05:45:41;;;;;;;7.63;4.63;;;;;;;;;;5050819;28;20031;-77
2023/08/25 05:48:07;;;;;;;6.93;4.22;;;;;;;;;;5038476;28;20373;-77
2023/08/25 05:50:32;;;;;;;6.68;5.47;;;;;;;;;;5047135;28;20037;-78
2023/08/25 05:52:57;;;;;;;10.70;3.63;;;;;;;;;;5050228;28;20044;-78
2023/08/25 05:55:23;;;;;;;7.70;4.80;;;;;;;;;;5048310;28;20072;-77
2023/08/25 05:57:49;;;;;;;8.40;4.53;;;;;;;;;;5042174;28;20275;-77
2023/08/25 06:00:14;;;;;;;6.53;3.85;;;;;;;;;;5060130;28;20088;-78
2023/08/25 06:02:40;;;;;;;6.07;4.10;;;;;;;;;;5056357;28;20045;-78
2023/08/25 06:05:05;;;;;;;10.52;5.85;;;;;;;;;;5048378;28;20038;-78
2023/08/25 06:07:31;;;;;;;5.90;3.88;;;;;;;;;;5047240;28;20013;-77
2023/08/25 06:09:56;;;;;;;8.88;4.40;;;;;;;;;;5059948;28;20021;-77
2023/08/25 06:12:21;;;;;;;7.00;4.43;;;;;;;;;;5062120;28;20033;-78
2023/08/25 06:14:47;;;;;;;8.90;5.50;;;;;;;;;;5056928;28;20081;-77
2023/08/25 06:17:12;;;;;;;6.15;4.55;;;;;;;;;;5049828;28;20029;-78
2023/08/25 06:19:37;;;;;;;6.95;3.97;;;;;;;;;;5056613;28;20056;-78
2023/08/25 06:22:03;;;;;;;7.57;5.22;;;;;;;;;;5048778;28;20024;-78
2023/08/25 06:24:29;;;;;;;7.53;3.58;;;;;;;;;;5032398;28;20093;-78
2023/08/25 06:26:54;;;;;;;5.50;3.65;;;;;;;;;;5059444;28;20080;-78
2023/08/25 06:29:19;;;;;;;6.60;3.70;;;;;;;;;;5057754;28;20088;-77
2023/08/25 06:31:44;;;;;;;7.15;3.83;;;;;;;;;;5047816;28;20280;-77
2023/08/25 06:34:10;;;;;;;7.80;4.03;;;;;;;;;;5048105;28;20036;-78
2023/08/25 06:36:35;;;;;;;6.95;4.93;;;;;;;;;;5038929;28;20476;-78
2023/08/25 06:39:01;;;;;;;5.53;3.78;;;;;;;;;;5049716;28;20229;-77
2023/08/25 06:41:26;;;;;;;7.18;4.43;;;;;;;;;;5044525;28;20032;-77
2023/08/25 06:43:51;;;;;;;8.60;3.70;;;;;;;;;;5048848;28;20026;-77
2023/08/25 06:46:17;;;;;;;8.90;3.90;;;;;;;;;;5056974;28;20052;-77
2023/08/25 06:48:42;;;;;;;5.40;3.40;;;;;;;;;;5045508;28;20025;-78
2023/08/25 06:51:08;;;;;;;9.85;3.90;;;;;;;;;;5056012;28;20059;-77
2023/08/25 06:53:33;;;;;;;5.32;3.33;;;;;;;;;;5058990;28;20044;-78
2023/08/25 06:55:59;;;;;;;6.60;3.97;;;;;;;;;;5056926;28;20033;-78
2023/08/25 06:58:24;;;;;;;8.18;4.80;;;;;;;;;;5057329;28;20290;-77
2023/08/25 07:00:50;;;;;;;7.53;3.83;;;;;;;;;;5057925;28;20037;-77
2023/08/25 07:03:16;;;;;;;10.95;5.82;;;;;;;;;;5056717;28;20275;-77
2023/08/25 07:05:41;;;;;;;8.60;4.93;;;;;;;;;;5042023;28;20044;-77
2023/08/25 07:08:06;;;;;;;7.00;4.07;;;;;;;;;;5061835;28;20072;-78
2023/08/25 07:10:32;;;;;;;7.45;3.25;;;;;;;;;;5061193;28;20025;-77
2023/08/25 07:12:57;;;;;;;7.72;4.78;;;;;;;;;;5063796;28;20051;-77
2023/08/25 07:15:22;;;;;;;5.57;3.58;;;;;;;;;;5053695;28;20400;-77
2023/08/25 07:17:47;;;;;;;4.95;3.00;;;;;;;;;;5058282;28;20110;-77
2023/08/25 07:20:13;;;;;;;7.85;3.35;;;;;;;;;;5046020;28;20025;-77
2023/08/25 07:22:38;;;;;;;8.23;4.03;;;;;;;;;;5057304;28;20028;-77
2023/08/25 07:25:03;;;;;;;7.45;3.15;;;;;;;;;;5058507;28;20032;-77
2023/08/25 07:27:29;;;;;;;5.75;3.35;;;;;;;;;;5056498;28;20197;-77
2023/08/25 07:29:55;;;;;;;6.47;3.00;;;;;;;;;;5044921;28;20039;-77
2023/08/25 07:32:20;;;;;;;7.72;3.22;;;;;;;;;;5047445;28;20445;-78
2023/08/25 07:34:45;;;;;;;6.05;3.22;;;;;;;;;;5056407;28;20033;-76
2023/08/25 07:37:11;;;;;;;7.23;3.10;;;;;;;;;;5058678;28;20064;-77
2023/08/25 07:39:36;;;;;;;6.03;3.03;;;;;;;;;;5059809;28;20303;-77
2023/08/25 07:42:03;;;;;;;6.22;3.40;;;;;;;;;;5062166;28;20112;-78
2023/08/25 07:44:28;;;;;;;5.88;3.92;;;;;;;;;;5058636;28;20495;-77
2023/08/25 07:46:53;;;;;;;6.33;3.80;;;;;;;;;;5060054;28;20088;-78
2023/08/25 07:49:19;;;;;;;5.40;3.20;;;;;;;;;;5029117;28;20335;-77
2023/08/25 07:51:44;;;;;;;9.15;4.43;;;;;;;;;;5059196;28;20030;-78
2023/08/25 07:54:09;;;;;;;6.55;3.60;;;;;;;;;;5048170;28;20487;-78
2023/08/25 07:56:35;;;;;;;6.77;3.40;;;;;;;;;;5045915;28;20064;-78
2023/08/25 07:59:00;;;;;;;6.25;3.25;;;;;;;;;;5059488;28;20279;-78
2023/08/25 08:01:26;;;;;;;7.17;3.00;;;;;;;;;;5062152;28;20048;-78
2023/08/25 08:03:51;;;;;;;5.97;3.90;;;;;;;;;;5062085;28;20271;-78
2023/08/25 08:06:16;;;;;;;5.25;3.15;;;;;;;;;;5059675;28;20306;-78
2023/08/25 08:08:43;;;;;;;7.55;3.78;;;;;;;;;;5049866;28;20044;-77
2023/08/25 08:11:09;;;;;;;8.07;4.80;;;;;;;;;;5057711;28;20055;-77
2023/08/25 08:13:34;;;;;;;8.68;4.20;;;;;;;;;;5069606;28;20048;-78
2023/08/25 08:15:59;;;;;;;5.30;3.20;;;;;;;;;;5053049;28;20045;-78
2023/08/25 08:18:25;;;;;;;5.55;2.95;;;;;;;;;;5069301;28;20097;-77
2023/08/25 08:20:50;;;;;;;7.28;2.72;;;;;;;;;;5066379;28;20024;-78
2023/08/25 08:23:15;;;;;;;5.13;3.03;;;;;;;;;;5064254;28;20029;-77
2023/08/25 08:25:41;;;;;;;4.43;2.57;;;;;;;;;;5059976;28;20318;-77
2023/08/25 08:28:08;;;;;;;7.38;2.88;;;;;;;;;;5043640;28;20318;-78
2023/08/25 08:30:33;;;;;;;6.25;3.22;;;;;;;;;;5060934;28;20423;-78
2023/08/25 08:32:58;;;;;;;6.38;2.85;;;;;;;;;;5062104;28;20029;-78
2023/08/25 08:35:24;;;;;;;5.93;3.17;;;;;;;;;;5067188;28;20037;-78
2023/08/25 08:37:49;;;;;;;6.20;3.33;;;;;;;;;;5061651;28;20581;-77
2023/08/25 08:40:14;;;;;;;7.13;4.57;;;;;;;;;;5045096;28;20296;-78
2023/08/25 08:42:40;;;;;;;5.80;3.00;;;;;;;;;;5044665;28;20280;-76
2023/08/25 08:45:09;;;;;;;9.18;3.70;;;;;;;;;;5050073;28;20028;-78
2023/08/25 08:47:35;;;;;;;5.03;3.00;;;;;;;;;;5049063;28;20071;-78
2023/08/25 08:50:00;;;;;;;7.32;3.35;;;;;;;;;;5051183;28;20041;-78
2023/08/25 08:52:27;;;;;;;6.30;3.10;;;;;;;;;;5061757;28;20089;-78
2023/08/25 08:54:52;;;;;;;5.10;2.63;;;;;;;;;;5065147;28;20104;-78
2023/08/25 08:57:18;;;;;;;7.45;4.00;;;;;;;;;;5057426;28;20052;-78
2023/08/25 08:59:43;;;;;;;7.43;4.18;;;;;;;;;;5060141;28;20055;-78
2023/08/25 09:02:10;;;;;;;7.53;5.35;;;;;;;;;;5048473;28;20068;-78
2023/08/25 09:04:37;;;;;;;5.20;3.13;;;;;;;;;;5053403;28;20036;-77
2023/08/25 09:07:03;;;;;;;5.97;3.03;;;;;;;;;;5065415;28;20047;-78
2023/08/25 09:09:28;;;;;;;7.10;2.95;;;;;;;;;;5040317;28;20060;-78
2023/08/25 09:11:54;;;;;;;7.47;3.20;;;;;;;;;;5053934;28;20093;-77
2023/08/25 09:14:29;;;;;;;5.47;2.65;;;;;;;;;;5067326;28;20075;-78
2023/08/25 09:16:59;;;;;;;4.50;3.00;;;;;;;;;;5066247;28;20052;-78
2023/08/25 09:19:24;;;;;;;5.72;3.10;;;;;;;;;;5063047;28;20044;-77
2023/08/25 09:21:50;;;;;;;4.60;2.75;;;;;;;;;;5061290;28;20033;-77
2023/08/25 09:24:19;;;;;;;5.15;2.90;;;;;;;;;;5058089;28;20076;-78
2023/08/25 09:26:44;;;;;;;4.97;2.72;;;;;;;;;;5065354;28;20107;-78
2023/08/25 09:29:12;;;;;;;5.57;3.50;;;;;;;;;;5067840;28;20040;-78
2023/08/25 09:31:37;;;;;;;5.30;3.40;;;;;;;;;;5058451;28;20041;-78
2023/08/25 09:34:04;;;;;;;8.02;3.17;;;;;;;;;;5052390;28;20028;-78
2023/08/25 09:36:29;;;;;;;9.00;3.65;;;;;;;;;;5063630;28;20100;-78
2023/08/25 09:38:54;;;;;;;6.05;2.78;;;;;;;;;;5057209;28;20022;-77
2023/08/25 09:41:26;;;;;;;5.07;2.83;;;;;;;;;;5057348;28;20036;-78
2023/08/25 09:43:55;;;;;;;4.95;3.33;;;;;;;;;;5059313;28;20272;-78
2023/08/25 09:46:26;;;;;;;7.13;3.10;;;;;;;;;;5064865;28;20510;-78
2023/08/25 09:48:52;;;;;;;4.72;2.92;;;;;;;;;;5058592;28;20072;-78
2023/08/25 09:51:17;;;;;;;5.32;3.22;;;;;;;;;;5062761;28;20048;-78
2023/08/25 09:53:43;;;;;;;3.92;2.60;;;;;;;;;;5072032;28;20041;-78
2023/08/25 09:56:09;;;;;;;5.85;2.90;;;;;;;;;;5069011;28;20025;-77
2023/08/25 09:58:35;;;;;;;8.32;2.53;;;;;;;;;;5050931;28;20472;-78
2023/08/25 10:01:00;;;;;;;6.05;2.55;;;;;;;;;;5056309;28;20036;-77
2023/08/25 10:03:26;;;;;;;7.13;2.53;;;;;;;;;;5059336;28;20039;-77
2023/08/25 10:05:52;;;;;;;5.93;2.83;;;;;;;;;;5055986;28;20049;-77
2023/08/25 10:08:17;;;;;;;7.38;2.53;;;;;;;;;;5062320;28;20022;-78
2023/08/25 10:10:43;;;;;;;6.15;2.90;;;;;;;;;;5057552;28;20403;-77
2023/08/25 10:13:11;;;;;;;5.90;2.95;;;;;;;;;;5052342;28;20033;-76
2023/08/25 10:15:37;;;;;;;6.07;2.92;;;;;;;;;;5058997;28;20112;-77
2023/08/25 10:18:02;;;;;;;6.53;3.00;;;;;;;;;;5061658;28;20051;-77
2023/08/25 10:20:29;;;;;;;5.43;2.53;;;;;;;;;;5057783;28;20125;-77
2023/08/25 10:22:55;;;;;;;4.75;2.90;;;;;;;;;;5057319;28;20032;-77
2023/08/25 10:25:21;;;;;;;4.78;3.55;;;;;;;;;;5045366;28;20037;-77
2023/08/25 10:27:47;;;;;;;6.00;3.33;;;;;;;;;;5060593;28;20025;-77
2023/08/25 10:30:12;;;;;;;5.53;2.30;;;;;;;;;;5050731;28;20034;-77
2023/08/25 10:32:47;;;;;;;5.53;2.42;;;;;;;;;;5057285;28;20052;-77
2023/08/25 10:35:12;;;;;;;7.45;2.38;;;;;;;;;;5056849;28;20074;-78
2023/08/25 10:37:38;;;;;;;6.10;2.43;;;;;;;;;;5060785;28;20029;-77
2023/08/25 10:40:07;;;;;;;5.63;3.17;;;;;;;;;;5054865;28;20029;-77
2023/08/25 10:42:33;;;;;;;6.00;2.72;;;;;;;;;;5055864;28;20299;-78
2023/08/25 10:45:01;;;;;;;5.15;2.78;;;;;;;;;;5043596;28;20029;-78
2023/08/25 10:47:27;;;;;;;5.13;3.22;;;;;;;;;;5051335;28;20084;-78
2023/08/25 10:49:53;;;;;;;6.72;2.95;;;;;;;;;;5059573;28;20034;-78
2023/08/25 10:52:19;;;;;;;4.38;2.53;;;;;;;;;;5060857;28;20036;-77
2023/08/25 10:54:45;;;;;;;8.82;2.85;;;;;;;;;;5058182;28;20435;-77
2023/08/25 10:57:17;;;;;;;5.07;2.65;;;;;;;;;;5064173;28;20100;-78
2023/08/25 10:59:45;;;;;;;6.07;2.40;;;;;;;;;;5052145;28;20041;-79
2023/08/25 11:02:10;;;;;;;4.20;2.50;;;;;;;;;;5044150;28;20415;-79
2023/08/25 11:04:37;;;;;;;8.70;2.80;;;;;;;;;;5043161;28;20029;-79
2023/08/25 11:07:03;;;;;;;8.85;2.88;;;;;;;;;;5035448;28;20021;-79
2023/08/25 11:09:32;;;;;;;4.93;2.65;;;;;;;;;;5044179;28;20112;-78
2023/08/25 11:12:03;;;;;;;5.45;2.80;;;;;;;;;;5041314;28;20180;-79
2023/08/25 11:14:29;;;;;;;3.70;1.95;;;;;;;;;;5045192;28;20029;-79
2023/08/25 11:16:55;;;;;;;4.03;2.65;;;;;;;;;;5041335;28;20049;-79
2023/08/25 11:19:20;;;;;;;5.85;2.22;;;;;;;;;;5048274;28;20033;-79
2023/08/25 11:21:54;;;;;;;8.03;2.43;;;;;;;;;;5047076;28;20517;-78
2023/08/25 11:24:21;;;;;;;5.60;2.38;;;;;;;;;;5026201;28;20297;-79
2023/08/25 11:26:46;;;;;;;5.45;2.75;;;;;;;;;;5046574;28;20102;-79
2023/08/25 11:29:12;;;;;;;5.20;2.40;;;;;;;;;;5048807;28;20495;-79
2023/08/25 11:31:37;;;;;;;5.43;2.67;;;;;;;;;;5047608;28;20028;-78
2023/08/25 11:34:02;;;;;;;4.50;2.17;;;;;;;;;;5050716;28;20699;-79
2023/08/25 11:36:28;;;;;;;10.57;3.97;;;;;;;;;;5029250;28;20021;-79
2023/08/25 11:38:53;;;;;;;8.00;3.58;;;;;;;;;;5046311;28;20037;-78
2023/08/25 11:41:18;;;;;;;5.13;2.80;;;;;;;;;;5045828;28;20033;-79
2023/08/25 11:43:47;;;;;;;6.03;2.63;;;;;;;;;;5047143;28;20279;-78
2023/08/25 11:46:13;;;;;;;5.57;2.80;;;;;;;;;;5042312;28;20038;-79
2023/08/25 11:48:39;;;;;;;5.82;2.60;;;;;;;;;;5046929;28;20396;-79
2023/08/25 11:51:04;;;;;;;3.95;2.58;;;;;;;;;;5049241;28;20035;-79
2023/08/25 11:53:30;;;;;;;5.15;3.22;;;;;;;;;;5049849;28;20048;-78
2023/08/25 11:55:59;;;;;;;5.85;3.22;;;;;;;;;;5018780;28;20038;-77
2023/08/25 11:58:28;;;;;;;5.47;2.45;;;;;;;;;;5041705;28;20109;-77
2023/08/25 12:00:58;;;;;;;6.20;2.58;;;;;;;;;;5053616;28;20419;-76
2023/08/25 12:03:24;;;;;;;7.68;3.40;;;;;;;;;;5054341;28;20055;-76
2023/08/25 12:05:50;;;;;;;7.00;2.85;;;;;;;;;;5044542;28;20428;-76
2023/08/25 12:08:16;;;;;;;5.38;2.78;;;;;;;;;;5032742;28;20107;-76
2023/08/25 12:10:41;;;;;;;9.45;3.78;;;;;;;;;;5038440;28;20389;-75
2023/08/25 12:13:06;;;;;;;7.15;3.00;;;;;;;;;;5040580;28;20108;-76
2023/08/25 12:15:38;;;;;;;5.40;3.05;;;;;;;;;;5045311;28;20384;-75
2023/08/25 12:18:03;;;;;;;8.23;3.65;;;;;;;;;;5042119;28;20040;-76
2023/08/25 12:20:29;;;;;;;8.15;2.70;;;;;;;;;;5041942;28;20037;-76
2023/08/25 12:22:57;;;;;;;7.27;3.00;;;;;;;;;;5043783;28;20025;-76
2023/08/25 12:25:23;;;;;;;6.85;2.67;;;;;;;;;;5042842;28;20370;-76
2023/08/25 12:27:48;;;;;;;3.92;2.42;;;;;;;;;;5039522;28;20124;-76
2023/08/25 12:30:14;;;;;;;7.95;3.55;;;;;;;;;;5041685;28;20072;-76
2023/08/25 12:32:39;;;;;;;7.23;2.57;;;;;;;;;;5042905;28;20082;-76
2023/08/25 12:35:04;;;;;;;4.15;2.50;;;;;;;;;;5039935;28;20276;-76
2023/08/25 12:37:30;;;;;;;5.82;4.00;;;;;;;;;;5042684;28;20539;-75
2023/08/25 12:39:55;;;;;;;6.78;2.65;;;;;;;;;;5034756;28;20575;-76
2023/08/25 12:42:20;;;;;;;5.57;2.80;;;;;;;;;;5042610;28;20098;-76
2023/08/25 12:44:45;;;;;;;6.23;3.00;;;;;;;;;;5043924;28;20272;-76
2023/08/25 12:47:11;;;;;;;7.00;3.30;;;;;;;;;;5054363;28;20903;-76
2023/08/25 12:49:36;;;;;;;7.05;3.17;;;;;;;;;;5055652;28;20306;-76
2023/08/25 12:52:01;;;;;;;6.17;2.50;;;;;;;;;;5054038;28;20032;-77
2023/08/25 12:54:26;;;;;;;4.97;2.40;;;;;;;;;;5049685;28;20284;-76
2023/08/25 12:56:53;;;;;;;5.27;2.57;;;;;;;;;;5055870;28;20039;-76
2023/08/25 12:59:19;;;;;;;5.72;2.65;;;;;;;;;;5061432;28;20325;-77
2023/08/25 13:01:44;;;;;;;7.70;2.60;;;;;;;;;;5059657;28;20039;-78
2023/08/25 13:04:09;;;;;;;6.05;2.70;;;;;;;;;;5057071;28;20675;-77
2023/08/25 13:06:34;;;;;;;6.37;2.83;;;;;;;;;;5061360;28;20085;-77
2023/08/25 13:08:59;;;;;;;6.23;2.50;;;;;;;;;;5062339;28;20041;-77
2023/08/25 13:11:25;;;;;;;5.03;2.30;;;;;;;;;;5058307;28;20263;-77
2023/08/25 13:13:50;;;;;;;5.53;2.37;;;;;;;;;;5057444;28;20029;-79
2023/08/25 13:16:15;;;;;;;4.73;2.10;;;;;;;;;;5055880;28;20268;-78
2023/08/25 13:18:40;;;;;;;4.80;2.40;;;;;;;;;;5056756;28;20399;-78
2023/08/25 13:21:06;;;;;;;6.15;3.72;;;;;;;;;;5052781;28;20701;-78
2023/08/25 13:23:31;;;;;;;6.30;3.25;;;;;;;;;;5061444;28;20028;-78
2023/08/25 13:25:56;;;;;;;5.20;2.78;;;;;;;;;;5057553;28;20064;-78
2023/08/25 13:28:21;;;;;;;5.90;2.80;;;;;;;;;;5056085;28;20068;-78
2023/08/25 13:30:49;;;;;;;4.83;2.70;;;;;;;;;;5056008;28;20267;-78
2023/08/25 13:33:14;;;;;;;4.30;2.58;;;;;;;;;;5056058;28;20647;-77
2023/08/25 13:35:39;;;;;;;8.83;3.03;;;;;;;;;;5057130;28;20041;-77
2023/08/25 13:38:04;;;;;;;6.60;2.70;;;;;;;;;;5056594;28;20691;-78
2023/08/25 13:40:30;;;;;;;6.53;2.53;;;;;;;;;;5055033;28;20355;-77
2023/08/25 13:42:55;;;;;;;4.90;1.87;;;;;;;;;;5058387;28;20303;-77
2023/08/25 13:45:20;;;;;;;7.13;2.60;;;;;;;;;;5057313;28;20271;-78
2023/08/25 13:47:46;;;;;;;7.87;2.90;;;;;;;;;;5055250;28;20287;-77
2023/08/25 13:50:11;;;;;;;6.68;2.97;;;;;;;;;;5045656;28;20300;-78
2023/08/25 13:52:37;;;;;;;8.73;3.08;;;;;;;;;;5058097;28;20057;-77
2023/08/25 13:55:02;;;;;;;6.10;3.13;;;;;;;;;;5045995;28;20033;-77
2023/08/25 13:57:27;;;;;;;7.65;3.75;;;;;;;;;;5055391;28;20276;-77
2023/08/25 13:59:52;;;;;;;8.73;4.17;;;;;;;;;;5038230;28;20029;-77
2023/08/25 14:02:18;;;;;;;9.75;4.07;;;;;;;;;;5058824;28;20068;-78
2023/08/25 14:04:43;;;;;;;7.97;3.88;;;;;;;;;;5059326;28;20107;-77
2023/08/25 14:07:08;;;;;;;8.37;3.73;;;;;;;;;;5054742;28;20032;-78
2023/08/25 14:09:33;;;;;;;6.50;3.33;;;;;;;;;;5044933;28;20033;-77
2023/08/25 14:11:59;;;;;;;6.32;3.55;;;;;;;;;;5042148;28;20278;-77
2023/08/25 14:14:24;;;;;;;6.20;3.50;;;;;;;;;;5053996;28;20094;-78
2023/08/25 14:16:49;;;;;;;5.63;2.40;;;;;;;;;;5056435;28;20029;-77
2023/08/25 14:19:14;;;;;;;6.32;2.38;;;;;;;;;;5042138;28;20279;-77
2023/08/25 14:21:40;;;;;;;7.00;3.13;;;;;;;;;;5049175;28;20068;-76
2023/08/25 14:24:05;;;;;;;3.53;1.98;;;;;;;;;;5036309;28;20088;-78
2023/08/25 14:26:30;;;;;;;4.77;2.33;;;;;;;;;;5041468;28;20546;-73
2023/08/25 14:28:55;;;;;;;4.03;2.03;;;;;;;;;;5046156;28;20689;-73
2023/08/25 14:31:20;;;;;;;4.53;2.20;;;;;;;;;;5043028;28;20288;-73
2023/08/25 14:33:46;;;;;;;4.80;2.50;;;;;;;;;;5043908;28;20076;-73
2023/08/25 14:36:11;;;;;;;3.83;2.03;;;;;;;;;;5043767;28;20275;-73